Time;durP1;ratioP1;P1;durP2;ratioP2;P2;SDS_P1;SDS_P2;PMS_P1;PMS_P2;Temp;Humidity;BMP_temperature;BMP_pressure;BME280_temperature;BME280_humidity;BME280_pressure;Samples;Min_cycle;Max_cycle;Signal;HPM_P1;HPM_P2
2023/11/11 00:01:00;;;;;;;1.25;0.30;;;;;;;5.05;100.00;91486.44;2102552;28;20024;-82
2023/11/11 00:02:01;;;;;;;0.38;0.30;;;;;;;4.95;100.00;91496.13;2098450;28;20528;-80
2023/11/11 00:03:05;;;;;;;2.58;0.30;;;;;;;4.96;100.00;91502.16;2098760;28;20032;-79
2023/11/11 00:04:06;;;;;;;0.80;0.25;;;;;;;5.04;100.00;91488.31;2123492;27;20015;-79
2023/11/11 00:05:07;;;;;;;1.60;0.15;;;;;;;5.20;100.00;91490.16;2124438;27;20068;-81
2023/11/11 00:06:09;;;;;;;0.30;0.30;;;;;;;5.06;100.00;91493.22;2115304;28;20024;-78
2023/11/11 00:07:12;;;;;;;0.28;0.28;;;;;;;5.04;100.00;91485.66;2121426;27;20029;-80
2023/11/11 00:08:13;;;;;;;0.93;0.35;;;;;;;5.09;100.00;91494.25;2123752;27;20092;-80
2023/11/11 00:09:13;;;;;;;1.05;0.20;;;;;;;5.10;100.00;91493.13;2123703;27;20050;-79
2023/11/11 00:10:14;;;;;;;0.20;0.20;;;;;;;4.97;100.00;91493.81;2123702;27;20019;-81
2023/11/11 00:11:21;;;;;;;0.30;0.30;;;;;;;4.88;100.00;91495.59;2120334;27;20114;-78
2023/11/11 00:12:22;;;;;;;0.32;0.20;;;;;;;4.93;100.00;91490.53;2115408;27;20048;-80
2023/11/11 00:13:23;;;;;;;0.30;0.22;;;;;;;4.93;100.00;91497.72;2108655;27;20055;-81
2023/11/11 00:14:25;;;;;;;0.20;0.20;;;;;;;5.04;100.00;91504.19;2106870;28;20642;-77
2023/11/11 00:15:26;;;;;;;0.80;0.30;;;;;;;4.88;100.00;91506.94;2107034;28;20032;-81
2023/11/11 00:16:30;;;;;;;0.30;0.30;;;;;;;4.82;100.00;91516.53;2119504;27;20426;-82
2023/11/11 00:17:31;;;;;;;0.20;0.20;;;;;;;4.93;100.00;91513.59;2122048;27;20023;-78
2023/11/11 00:18:33;;;;;;;0.43;0.25;;;;;;;5.05;100.00;91516.28;2108981;28;20025;-80
2023/11/11 00:19:34;;;;;;;0.47;0.30;;;;;;;4.98;100.00;91511.19;2122190;27;20031;-81
2023/11/11 00:20:35;;;;;;;0.20;0.20;;;;;;;4.98;100.00;91521.03;2115758;27;20024;-79
2023/11/11 00:21:37;;;;;;;0.28;0.28;;;;;;;5.01;100.00;91528.88;2101835;28;20028;-78
2023/11/11 00:22:41;;;;;;;0.20;0.20;;;;;;;5.02;100.00;91527.72;2107205;28;20016;-78
2023/11/11 00:23:42;;;;;;;0.20;0.20;;;;;;;5.03;100.00;91553.03;2114920;28;20079;-82
2023/11/11 00:24:47;;;;;;;0.93;0.20;;;;;;;5.03;100.00;91534.50;2106250;28;20024;-81
2023/11/11 00:25:48;;;;;;;0.10;0.10;;;;;;;4.96;100.00;91534.69;2105521;28;20036;-80
2023/11/11 00:26:49;;;;;;;1.40;0.20;;;;;;;4.87;100.00;91542.47;2099409;28;20031;-81
2023/11/11 00:27:50;;;;;;;0.20;0.20;;;;;;;4.93;100.00;91546.13;2106661;28;20051;-79
2023/11/11 00:28:51;;;;;;;0.20;0.20;;;;;;;4.95;100.00;91537.75;2100747;28;20034;-83
2023/11/11 00:29:52;;;;;;;1.25;0.30;;;;;;;4.82;100.00;91553.59;2114987;27;20024;-81
2023/11/11 00:30:54;;;;;;;0.20;0.20;;;;;;;4.87;100.00;91563.66;2123470;27;20023;-80
2023/11/11 00:31:59;;;;;;;0.25;0.20;;;;;;;4.84;100.00;91553.91;2123596;27;20444;-79
2023/11/11 00:33:00;;;;;;;0.10;0.10;;;;;;;4.79;100.00;91549.13;2123509;27;20375;-80
2023/11/11 00:34:01;;;;;;;1.38;0.20;;;;;;;4.68;100.00;91544.09;2123544;27;20015;-81
2023/11/11 00:35:03;;;;;;;0.17;0.17;;;;;;;4.61;100.00;91562.81;2124246;27;20348;-78
2023/11/11 00:36:05;;;;;;;0.10;0.10;;;;;;;4.77;100.00;91548.81;2124141;27;20102;-83
2023/11/11 00:37:06;;;;;;;2.22;0.20;;;;;;;4.63;100.00;91554.47;2122834;27;20027;-82
2023/11/11 00:38:09;;;;;;;0.90;0.20;;;;;;;4.51;100.00;91551.31;2106771;28;20028;-79
2023/11/11 00:39:11;;;;;;;0.75;0.20;;;;;;;4.52;100.00;91558.13;2107300;28;20476;-80
2023/11/11 00:40:13;;;;;;;0.20;0.20;;;;;;;4.64;100.00;91553.28;2123763;27;20016;-82
2023/11/11 00:41:14;;;;;;;0.20;0.20;;;;;;;4.57;100.00;91556.13;2116751;27;20041;-79
2023/11/11 00:42:15;;;;;;;0.10;0.10;;;;;;;4.49;100.00;91547.63;2123515;27;20031;-78
2023/11/11 00:43:16;;;;;;;0.10;0.10;;;;;;;4.27;100.00;91547.38;2119698;27;20078;-79
2023/11/11 00:44:21;;;;;;;0.20;0.15;;;;;;;4.36;100.00;91544.16;2121528;27;20023;-80
2023/11/11 00:45:24;;;;;;;0.10;0.10;;;;;;;4.35;100.00;91551.34;2123639;27;20068;-79
2023/11/11 00:46:25;;;;;;;0.50;0.30;;;;;;;4.35;100.00;91547.97;2119900;27;20093;-80
2023/11/11 00:47:26;;;;;;;1.10;0.20;;;;;;;4.28;100.00;91577.97;2119726;27;20027;-78
2023/11/11 00:48:27;;;;;;;0.20;0.20;;;;;;;4.29;100.00;91571.50;2122321;27;20551;-80
2023/11/11 00:49:28;;;;;;;0.20;0.20;;;;;;;4.41;100.00;91562.16;2119437;27;20030;-81
2023/11/11 00:50:29;;;;;;;2.28;0.52;;;;;;;4.18;100.00;91581.59;2115080;28;20062;-81
2023/11/11 00:51:33;;;;;;;0.30;0.30;;;;;;;4.43;100.00;91573.81;2115107;28;20026;-83
2023/11/11 00:52:36;;;;;;;0.30;0.30;;;;;;;4.50;100.00;91578.94;2100643;28;20622;-80
2023/11/11 00:53:37;;;;;;;0.20;0.20;;;;;;;4.45;100.00;91566.22;2101899;27;20032;-80
2023/11/11 00:54:38;;;;;;;2.00;0.30;;;;;;;4.52;100.00;91581.16;2106537;28;20465;-77
2023/11/11 00:55:40;;;;;;;1.27;0.30;;;;;;;4.36;100.00;91584.56;2106546;28;20024;-82
2023/11/11 00:57:09;;;;;;;0.28;0.28;;;;;;;4.40;100.00;91579.19;2123601;27;20025;-77
2023/11/11 00:58:11;;;;;;;0.40;0.40;;;;;;;4.43;100.00;91581.75;2115510;28;20054;-80
2023/11/11 00:59:13;;;;;;;0.63;0.32;;;;;;;4.44;100.00;91595.75;2115473;28;20504;-78
2023/11/11 01:00:27;;;;;;;0.32;0.32;;;;;;;4.44;100.00;91583.25;2108078;28;20093;-78
2023/11/11 01:05:53;;;;;;;1.13;0.40;;;;;;;4.59;100.00;91609.38;2115965;28;20032;-78
2023/11/11 01:06:55;;;;;;;0.32;0.30;;;;;;;4.66;100.00;91612.59;2115571;28;20022;-77
2023/11/11 01:07:56;;;;;;;0.73;0.30;;;;;;;4.61;100.00;91615.75;2115501;28;20024;-78
2023/11/11 01:10:55;;;;;;;0.20;0.20;;;;;;;4.59;100.00;91630.53;2114692;28;20357;-77
2023/11/11 01:11:56;;;;;;;2.13;0.45;;;;;;;4.45;100.00;91613.84;2122827;27;20062;-76
2023/11/11 01:13:04;;;;;;;1.88;0.40;;;;;;;4.42;100.00;91624.50;2110088;28;20055;-78
2023/11/11 01:14:05;;;;;;;0.38;0.30;;;;;;;4.52;100.00;91624.25;2111564;27;20024;-79
2023/11/11 01:15:09;;;;;;;0.60;0.38;;;;;;;4.43;100.00;91631.25;2124214;27;20029;-80
2023/11/11 01:16:10;;;;;;;1.40;0.40;;;;;;;4.37;100.00;91623.09;2118585;27;20030;-78
2023/11/11 01:17:11;;;;;;;3.13;0.47;;;;;;;4.41;100.00;91623.00;2119403;27;20344;-78
2023/11/11 01:18:12;;;;;;;0.52;0.30;;;;;;;4.45;100.00;91621.78;2117537;27;20032;-78
2023/11/11 01:19:13;;;;;;;0.28;0.28;;;;;;;4.35;100.00;91614.84;2116674;27;20029;-79
2023/11/11 01:20:14;;;;;;;1.00;0.43;;;;;;;4.35;100.00;91622.75;2115385;27;20078;-80
2023/11/11 01:21:16;;;;;;;0.20;0.20;;;;;;;4.40;100.00;91624.19;2098059;28;20025;-78
2023/11/11 01:22:18;;;;;;;0.40;0.40;;;;;;;4.41;100.00;91625.66;2106445;28;20068;-80
2023/11/11 01:23:19;;;;;;;0.75;0.40;;;;;;;4.32;100.00;91622.84;2115266;28;20103;-79
2023/11/11 01:24:20;;;;;;;0.40;0.40;;;;;;;4.39;100.00;91647.25;2106104;28;20036;-83
2023/11/11 01:25:21;;;;;;;1.10;0.50;;;;;;;4.39;100.00;91626.06;2105641;28;20032;-78
2023/11/11 01:26:25;;;;;;;0.73;0.30;;;;;;;4.36;100.00;91626.91;2106430;28;20020;-78
2023/11/11 01:27:27;;;;;;;0.52;0.40;;;;;;;4.38;100.00;91632.50;2106900;28;20074;-78
2023/11/11 01:28:29;;;;;;;1.52;0.38;;;;;;;4.36;100.00;91637.47;2106871;28;20028;-77
2023/11/11 01:29:30;;;;;;;0.30;0.30;;;;;;;4.36;100.00;91637.47;2106873;28;20027;-79
2023/11/11 01:30:31;;;;;;;0.82;0.40;;;;;;;4.37;100.00;91633.66;2114657;28;20023;-79
2023/11/11 01:31:32;;;;;;;1.17;0.50;;;;;;;4.30;100.00;91644.41;2106316;28;20027;-79
2023/11/11 01:32:33;;;;;;;0.30;0.30;;;;;;;4.55;100.00;91649.88;2106106;28;20057;-76
2023/11/11 01:33:35;;;;;;;0.30;0.30;;;;;;;4.58;100.00;91643.03;2106074;28;20020;-79
2023/11/11 01:34:39;;;;;;;0.50;0.50;;;;;;;4.43;100.00;91655.81;2097760;28;20507;-78
2023/11/11 01:35:40;;;;;;;0.50;0.50;;;;;;;4.53;100.00;91643.53;2098610;28;20031;-79
2023/11/11 01:36:43;;;;;;;0.40;0.40;;;;;;;4.46;100.00;91644.41;2106785;28;20165;-79
2023/11/11 01:37:44;;;;;;;2.63;0.35;;;;;;;4.46;100.00;91651.59;2105375;28;20120;-78
2023/11/11 01:38:51;;;;;;;0.45;0.40;;;;;;;4.58;100.00;91643.03;2106245;28;20500;-78
2023/11/11 01:39:52;;;;;;;0.43;0.35;;;;;;;4.50;100.00;91646.97;2098599;28;20504;-79
2023/11/11 01:40:53;;;;;;;0.40;0.40;;;;;;;4.58;100.00;91655.50;2106223;28;20020;-81
2023/11/11 01:41:54;;;;;;;1.08;0.30;;;;;;;4.49;100.00;91646.25;2107838;28;20089;-80
2023/11/11 01:42:58;;;;;;;0.30;0.30;;;;;;;4.54;100.00;91645.75;2101318;28;20024;-78
2023/11/11 01:43:59;;;;;;;1.08;0.40;;;;;;;4.59;100.00;91638.47;2115109;27;20353;-76
2023/11/11 01:45:00;;;;;;;0.38;0.38;;;;;;;4.54;100.00;91639.72;2114536;27;20476;-78
2023/11/11 01:46:02;;;;;;;0.77;0.40;;;;;;;4.52;100.00;91645.44;2111156;28;20044;-79
2023/11/11 01:47:07;;;;;;;1.00;0.35;;;;;;;4.42;100.00;91646.41;2112706;28;20019;-79
2023/11/11 01:48:08;;;;;;;0.32;0.32;;;;;;;4.41;100.00;91644.16;2108144;28;20487;-81
2023/11/11 01:49:09;;;;;;;0.47;0.40;;;;;;;4.57;100.00;91646.09;2110547;28;20023;-79
2023/11/11 01:50:29;;;;;;;2.08;0.40;;;;;;;4.46;100.00;91652.34;2114601;28;20100;-78
2023/11/11 01:51:31;;;;;;;0.40;0.30;;;;;;;4.45;100.00;91652.78;2111965;28;20081;-80
2023/11/11 01:52:32;;;;;;;1.60;0.30;;;;;;;4.64;100.00;91657.22;2114648;28;20106;-79
2023/11/11 01:53:34;;;;;;;0.30;0.30;;;;;;;4.48;100.00;91659.91;2114216;28;20377;-77
2023/11/11 01:54:37;;;;;;;0.30;0.30;;;;;;;4.41;100.00;91662.69;2106030;28;20082;-79
2023/11/11 01:55:40;;;;;;;0.43;0.40;;;;;;;4.43;100.00;91661.09;2106195;28;20492;-79
2023/11/11 01:56:43;;;;;;;0.40;0.40;;;;;;;4.42;100.00;91669.47;2113292;28;20490;-78
2023/11/11 01:57:44;;;;;;;0.30;0.30;;;;;;;4.42;100.00;91661.53;2114465;28;20046;-81
2023/11/11 01:58:45;;;;;;;0.85;0.32;;;;;;;4.31;100.00;91667.06;2106017;28;20028;-78
2023/11/11 01:59:47;;;;;;;2.28;0.40;;;;;;;4.42;100.00;91682.69;2114558;28;20031;-79
2023/11/11 02:00:51;;;;;;;0.52;0.47;;;;;;;4.37;100.00;91665.41;2114502;28;20390;-76
2023/11/11 02:01:54;;;;;;;1.27;0.40;;;;;;;4.50;100.00;91682.13;2123257;27;20023;-82
2023/11/11 02:03:05;;;;;;;1.42;0.45;;;;;;;4.35;100.00;91675.66;2122639;27;20098;-77
2023/11/11 02:04:06;;;;;;;0.45;0.40;;;;;;;4.36;100.00;91677.16;2114608;28;20020;-81
2023/11/11 02:05:28;;;;;;;0.63;0.45;;;;;;;4.35;100.00;91683.59;2114411;28;20020;-78
2023/11/11 02:06:30;;;;;;;0.50;0.50;;;;;;;4.27;100.00;91680.34;2112132;28;20059;-83
2023/11/11 02:08:00;;;;;;;1.67;0.50;;;;;;;4.46;100.00;91684.09;2114426;28;20043;-80
2023/11/11 02:09:01;;;;;;;0.90;0.45;;;;;;;4.31;100.00;91690.13;2114747;28;20160;-77
2023/11/11 02:10:07;;;;;;;1.48;0.90;;;;;;;4.27;100.00;91687.56;2110567;28;20024;-78
2023/11/11 02:13:05;;;;;;;1.23;0.60;;;;;;;4.08;100.00;91688.31;2107224;28;20023;-77
2023/11/11 02:15:02;;;;;;;0.40;0.40;;;;;;;4.17;100.00;91691.16;2114363;28;20471;-81
2023/11/11 02:19:58;;;;;;;1.63;0.40;;;;;;;4.01;100.00;91705.81;2110170;28;20096;-80
2023/11/11 02:20:59;;;;;;;0.50;0.50;;;;;;;4.32;100.00;91721.44;2108374;28;20031;-79
2023/11/11 02:22:00;;;;;;;0.60;0.60;;;;;;;4.22;100.00;91701.25;2113979;28;20039;-79
2023/11/11 02:24:08;;;;;;;0.98;0.70;;;;;;;3.61;100.00;91717.56;2139918;27;20626;-82
2023/11/11 02:25:52;;;;;;;1.83;0.60;;;;;;;3.59;100.00;91733.06;2129581;27;20035;-81
2023/11/11 02:28:53;;;;;;;2.95;0.77;;;;;;;3.75;100.00;91725.97;2130803;27;20023;-82
2023/11/11 02:29:57;;;;;;;2.35;0.80;;;;;;;3.76;100.00;91745.19;2130116;27;20030;-80
2023/11/11 02:30:58;;;;;;;3.90;1.13;;;;;;;3.81;100.00;91720.19;2122111;27;20069;-82
2023/11/11 02:33:57;;;;;;;3.65;1.30;;;;;;;3.70;100.00;91744.94;2122227;28;20030;-78
2023/11/11 02:35:23;;;;;;;2.75;0.93;;;;;;;3.69;100.00;91742.72;2121144;28;20023;-77
2023/11/11 02:36:24;;;;;;;2.58;0.75;;;;;;;3.58;100.00;91753.44;2121847;28;20540;-81
2023/11/11 02:47:16;;;;;;;1.77;1.40;;;;;;;3.74;100.00;91764.13;2126568;27;20022;-82
2023/11/11 02:48:17;;;;;;;2.40;0.95;;;;;;;3.64;100.00;91765.03;2129508;27;20027;-80
2023/11/11 02:49:19;;;;;;;2.38;1.10;;;;;;;3.78;100.00;91764.06;2120534;28;20027;-82
2023/11/11 02:50:20;;;;;;;3.55;1.25;;;;;;;3.75;100.00;91762.97;2104768;28;20039;-83
2023/11/11 02:51:21;;;;;;;2.13;1.35;;;;;;;3.80;100.00;91769.66;2104869;28;20024;-82
2023/11/11 02:52:22;;;;;;;1.35;1.20;;;;;;;3.79;100.00;91773.47;2104707;28;20870;-84
2023/11/11 02:53:23;;;;;;;3.72;1.10;;;;;;;3.85;100.00;91773.75;2121220;28;20031;-78
2023/11/11 02:54:25;;;;;;;4.18;1.20;;;;;;;3.95;100.00;91772.78;2122121;27;20076;-80
2023/11/11 02:55:27;;;;;;;1.60;1.20;;;;;;;3.86;100.00;91778.59;2130062;27;20113;-82
2023/11/11 02:58:26;;;;;;;2.22;0.82;;;;;;;3.93;100.00;91767.16;2122108;28;20079;-80
2023/11/11 03:00:23;;;;;;;2.38;1.38;;;;;;;3.93;100.00;91781.13;2122217;27;20098;-80
2023/11/11 03:01:24;;;;;;;3.10;1.00;;;;;;;3.90;100.00;91781.94;2120959;28;20468;-78
2023/11/11 03:02:38;;;;;;;2.15;0.95;;;;;;;3.91;100.00;91791.38;2113107;28;20028;-79
2023/11/11 03:03:41;;;;;;;4.22;1.20;;;;;;;3.91;100.00;91793.28;2121480;28;20069;-80
2023/11/11 03:05:05;;;;;;;3.22;1.30;;;;;;;3.88;100.00;91788.78;2122003;27;20023;-78
2023/11/11 03:06:12;;;;;;;2.75;1.20;;;;;;;3.70;100.00;91791.75;2112926;28;20028;-79
2023/11/11 03:09:50;;;;;;;2.05;0.90;;;;;;;3.93;100.00;91793.59;2121966;28;20027;-81
2023/11/11 03:10:51;;;;;;;1.25;1.15;;;;;;;3.76;100.00;91785.59;2112769;28;20058;-83
2023/11/11 03:11:52;;;;;;;3.88;1.30;;;;;;;3.83;100.00;91803.22;2112272;28;20422;-82
2023/11/11 03:14:50;;;;;;;2.05;1.05;;;;;;;3.76;100.00;91814.66;2129193;27;20091;-82
2023/11/11 03:16:32;;;;;;;2.05;1.40;;;;;;;3.76;100.00;91793.50;2119276;28;20523;-79
2023/11/11 03:17:33;;;;;;;3.08;1.15;;;;;;;3.85;100.00;91803.56;2126333;27;20413;-82
2023/11/11 03:18:34;;;;;;;5.10;1.42;;;;;;;3.67;100.00;91811.06;2116608;28;20080;-82
2023/11/11 03:22:25;;;;;;;4.78;1.23;;;;;;;3.74;100.00;91822.25;2113772;28;20126;-78
2023/11/11 03:26:12;;;;;;;2.53;1.38;;;;;;;3.74;100.00;91810.94;2102532;28;20036;-81
2023/11/11 03:27:13;;;;;;;2.80;1.30;;;;;;;3.71;100.00;91815.13;2095539;28;20021;-81
2023/11/11 03:30:12;;;;;;;3.70;1.50;;;;;;;3.89;100.00;91808.78;2103360;28;20110;-80
2023/11/11 03:31:13;;;;;;;2.05;1.23;;;;;;;3.73;100.00;91822.63;2103884;28;20024;-77
2023/11/11 03:32:24;;;;;;;2.40;1.17;;;;;;;3.61;100.00;91825.88;2095422;28;20024;-78
2023/11/11 03:39:16;;;;;;;0.82;0.82;;;;;;;3.54;100.00;91824.09;2098347;28;20028;-81
2023/11/11 03:42:14;;;;;;;3.38;1.05;;;;;;;3.51;100.00;91822.25;2103159;28;20026;-83
2023/11/11 03:43:15;;;;;;;3.10;1.30;;;;;;;3.54;100.00;91816.16;2096874;28;20032;-82
2023/11/11 03:44:16;;;;;;;2.50;1.20;;;;;;;3.52;100.00;91815.84;2096514;28;20033;-82
2023/11/11 03:47:41;;;;;;;3.60;1.30;;;;;;;3.69;100.00;91814.06;2102271;28;20020;-81
2023/11/11 03:54:34;;;;;;;1.35;1.10;;;;;;;3.51;100.00;91824.88;2115632;28;20034;-79
2023/11/11 03:55:35;;;;;;;3.20;1.00;;;;;;;3.37;100.00;91830.41;2115392;28;20098;-82
2023/11/11 03:56:36;;;;;;;3.33;1.10;;;;;;;3.36;100.00;91821.00;2115268;28;20023;-78
2023/11/11 03:57:37;;;;;;;2.13;1.10;;;;;;;3.47;100.00;91832.16;2106822;28;20024;-82
2023/11/11 03:58:38;;;;;;;2.55;1.17;;;;;;;3.44;100.00;91819.75;2098682;28;20044;-81
2023/11/11 03:59:40;;;;;;;2.00;1.13;;;;;;;3.49;100.00;91827.19;2115089;28;20113;-79
2023/11/11 04:00:44;;;;;;;3.58;1.10;;;;;;;3.58;100.00;91837.25;2115523;28;20027;-80
2023/11/11 04:01:45;;;;;;;4.35;1.48;;;;;;;3.67;100.00;91829.53;2106024;28;20107;-79
2023/11/11 04:02:46;;;;;;;6.25;1.38;;;;;;;3.70;100.00;91834.03;2097900;28;20082;-80
2023/11/11 04:03:47;;;;;;;1.30;1.15;;;;;;;3.68;100.00;91836.31;2106720;28;20107;-80
2023/11/11 04:04:48;;;;;;;5.05;1.38;;;;;;;3.62;100.00;91837.94;2104953;28;20028;-80
2023/11/11 04:05:49;;;;;;;4.05;1.10;;;;;;;3.47;100.00;91840.81;2106552;28;20023;-82
2023/11/11 04:06:51;;;;;;;4.25;1.27;;;;;;;3.51;100.00;91844.16;2106777;28;20028;-79
2023/11/11 04:07:52;;;;;;;3.83;1.25;;;;;;;3.70;100.00;91849.88;2106689;28;20023;-78
2023/11/11 04:08:53;;;;;;;1.55;1.05;;;;;;;3.49;100.00;91845.69;2090027;28;20107;-79
2023/11/11 04:13:48;;;;;;;1.40;0.85;;;;;;;3.36;100.00;91845.50;2111602;28;20031;-78
2023/11/11 04:14:49;;;;;;;1.50;1.10;;;;;;;3.38;100.00;91851.16;2109897;28;20114;-78
2023/11/11 04:16:01;;;;;;;2.00;1.08;;;;;;;3.61;100.00;91850.41;2110368;28;20026;-80
2023/11/11 04:17:02;;;;;;;2.30;1.00;;;;;;;3.45;100.00;91863.50;2114119;28;20802;-79
2023/11/11 04:18:03;;;;;;;1.33;1.23;;;;;;;3.40;100.00;91840.91;2108487;28;20490;-79
2023/11/11 04:19:05;;;;;;;3.25;1.20;;;;;;;3.32;100.00;91850.09;2106336;28;20031;-80
2023/11/11 04:20:09;;;;;;;2.35;1.15;;;;;;;3.42;100.00;91846.53;2098109;28;20050;-81
2023/11/11 04:21:12;;;;;;;1.50;1.13;;;;;;;3.35;100.00;91840.63;2102682;28;20471;-78
2023/11/11 04:22:13;;;;;;;6.18;1.52;;;;;;;3.34;100.00;91836.50;2115247;28;20031;-80
2023/11/11 04:23:14;;;;;;;1.60;1.00;;;;;;;3.37;100.00;91844.34;2105824;28;20533;-80
2023/11/11 04:24:15;;;;;;;4.75;1.75;;;;;;;3.27;100.00;91847.91;2106869;28;20089;-79
2023/11/11 04:25:16;;;;;;;1.73;1.30;;;;;;;3.29;100.00;91837.69;2115695;28;20027;-79
2023/11/11 04:26:17;;;;;;;2.70;1.70;;;;;;;3.33;100.00;91830.47;2114828;28;20020;-80
2023/11/11 04:27:18;;;;;;;1.77;1.20;;;;;;;3.26;100.00;91833.97;2114935;28;20059;-80
2023/11/11 04:28:19;;;;;;;3.03;1.10;;;;;;;3.16;100.00;91834.09;2106746;28;20373;-78
2023/11/11 04:29:20;;;;;;;3.22;1.10;;;;;;;2.94;100.00;91820.47;2115084;28;20020;-80
2023/11/11 04:30:21;;;;;;;3.38;1.27;;;;;;;3.09;100.00;91821.03;2115068;28;20020;-79
2023/11/11 04:31:23;;;;;;;2.20;1.50;;;;;;;2.94;100.00;91821.25;2106711;28;20032;-81
2023/11/11 04:32:24;;;;;;;1.95;1.10;;;;;;;2.88;100.00;91837.91;2115135;28;20024;-77
2023/11/11 04:33:25;;;;;;;2.65;1.10;;;;;;;2.90;100.00;91827.72;2114389;28;20019;-79
2023/11/11 04:34:36;;;;;;;1.98;1.30;;;;;;;2.86;100.00;91833.03;2114895;28;20039;-80
2023/11/11 04:35:37;;;;;;;2.65;1.10;;;;;;;2.90;100.00;91819.81;2112097;28;20479;-80
2023/11/11 04:36:38;;;;;;;3.20;1.40;;;;;;;2.88;100.00;91828.09;2115137;28;20031;-80
2023/11/11 04:37:39;;;;;;;1.33;1.10;;;;;;;2.83;100.00;91827.81;2114171;28;20051;-79
2023/11/11 04:38:42;;;;;;;2.15;1.10;;;;;;;2.81;100.00;91836.13;2114932;28;20078;-79
2023/11/11 04:39:46;;;;;;;1.58;1.13;;;;;;;3.00;100.00;91824.19;2098346;28;20434;-81
2023/11/11 04:40:49;;;;;;;2.42;1.25;;;;;;;2.96;100.00;91813.66;2099535;28;20029;-80
2023/11/11 04:41:54;;;;;;;3.10;1.15;;;;;;;2.89;100.00;91823.56;2112908;28;20032;-77
2023/11/11 04:42:55;;;;;;;2.28;1.40;;;;;;;2.87;100.00;91829.25;2110960;28;20071;-80
2023/11/11 04:43:56;;;;;;;2.33;1.25;;;;;;;2.69;100.00;91828.75;2114031;28;20012;-78
2023/11/11 04:44:57;;;;;;;3.38;1.33;;;;;;;2.82;100.00;91827.06;2107117;28;20024;-77
2023/11/11 04:45:58;;;;;;;2.47;1.23;;;;;;;2.95;100.00;91822.75;2107099;28;20027;-80
2023/11/11 04:46:59;;;;;;;5.53;1.50;;;;;;;2.80;100.00;91825.97;2103448;28;20023;-79
2023/11/11 04:48:01;;;;;;;3.85;1.38;;;;;;;2.96;100.00;91828.75;2106312;28;20438;-80
2023/11/11 04:49:02;;;;;;;1.90;1.30;;;;;;;2.92;100.00;91835.97;2110821;28;20019;-79
2023/11/11 04:50:04;;;;;;;1.88;1.40;;;;;;;2.77;100.00;91838.06;2102852;28;20024;-78
2023/11/11 04:51:05;;;;;;;6.78;1.48;;;;;;;2.84;100.00;91839.84;2106861;28;20020;-80
2023/11/11 04:52:07;;;;;;;2.63;2.15;;;;;;;2.86;100.00;91843.59;2114921;28;20030;-78
2023/11/11 04:53:08;;;;;;;2.92;1.40;;;;;;;2.79;100.00;91841.03;2114757;28;20564;-79
2023/11/11 04:54:08;;;;;;;2.28;1.67;;;;;;;2.92;100.00;91849.91;2106550;28;20134;-79
2023/11/11 04:55:27;;;;;;;2.78;1.23;;;;;;;2.91;100.00;91851.06;2106408;28;20109;-78
2023/11/11 04:56:28;;;;;;;1.92;1.35;;;;;;;2.82;100.00;91845.53;2108866;28;20048;-80
2023/11/11 04:57:29;;;;;;;3.33;1.25;;;;;;;2.93;100.00;91856.69;2114596;28;20034;-81
2023/11/11 04:58:30;;;;;;;3.38;1.48;;;;;;;2.84;100.00;91861.72;2114781;28;20185;-81
2023/11/11 04:59:31;;;;;;;2.10;1.27;;;;;;;2.98;100.00;91860.75;2097844;28;20033;-81
2023/11/11 05:00:32;;;;;;;1.55;1.20;;;;;;;3.02;100.00;91853.53;2097869;28;20562;-82
2023/11/11 05:01:33;;;;;;;3.85;1.65;;;;;;;3.05;100.00;91865.22;2106351;28;20879;-79
2023/11/11 05:02:34;;;;;;;3.20;1.30;;;;;;;2.82;100.00;91866.66;2113638;28;20110;-79
2023/11/11 05:03:35;;;;;;;3.33;1.85;;;;;;;2.83;100.00;91862.13;2112946;28;20111;-82
2023/11/11 05:04:36;;;;;;;3.20;1.38;;;;;;;2.94;100.00;91878.53;2114697;28;20038;-78
2023/11/11 05:05:37;;;;;;;3.40;1.50;;;;;;;2.98;100.00;91871.31;2114675;28;20023;-80
2023/11/11 05:06:41;;;;;;;4.63;1.52;;;;;;;2.97;100.00;91875.13;2114955;28;20047;-80
2023/11/11 05:07:44;;;;;;;3.35;1.50;;;;;;;2.86;100.00;91867.34;2115271;28;20034;-81
2023/11/11 05:08:46;;;;;;;2.60;1.45;;;;;;;2.85;100.00;91871.09;2106368;28;20708;-77
2023/11/11 05:09:47;;;;;;;4.65;1.65;;;;;;;2.92;100.00;91865.75;2106502;28;20102;-77
2023/11/11 05:10:48;;;;;;;1.65;1.40;;;;;;;2.86;100.00;91874.53;2115290;28;20024;-80
2023/11/11 05:11:50;;;;;;;4.35;3.05;;;;;;;2.85;100.00;91875.66;2111839;28;20069;-80
2023/11/11 05:12:53;;;;;;;3.30;1.58;;;;;;;2.92;100.00;91880.84;2107651;28;20100;-77
2023/11/11 05:13:54;;;;;;;2.90;1.35;;;;;;;2.87;100.00;91870.72;2106362;28;20681;-80
2023/11/11 05:14:55;;;;;;;3.05;1.42;;;;;;;2.98;100.00;91874.69;2114299;28;20028;-82
2023/11/11 05:16:03;;;;;;;1.63;1.52;;;;;;;3.02;100.00;91864.84;2112254;28;20019;-77
2023/11/11 05:17:07;;;;;;;3.28;1.30;;;;;;;3.07;100.00;91868.94;2099928;28;20028;-82
2023/11/11 05:18:09;;;;;;;4.63;1.67;;;;;;;3.00;100.00;91874.31;2114536;28;20019;-78
2023/11/11 05:19:11;;;;;;;2.15;1.25;;;;;;;3.10;100.00;91875.31;2106206;28;20028;-81
2023/11/11 05:20:14;;;;;;;2.03;1.40;;;;;;;3.07;100.00;91870.81;2099759;28;20020;-77
2023/11/11 05:21:16;;;;;;;3.30;1.50;;;;;;;3.06;100.00;91880.63;2110830;28;20061;-80
2023/11/11 05:22:17;;;;;;;3.85;1.23;;;;;;;3.03;100.00;91886.75;2106429;28;20023;-82
2023/11/11 05:23:18;;;;;;;1.70;1.15;;;;;;;2.86;100.00;91885.81;2105714;28;20449;-78
2023/11/11 05:24:20;;;;;;;3.40;1.67;;;;;;;2.85;100.00;91881.66;2106163;28;20027;-79
2023/11/11 05:25:21;;;;;;;2.25;1.50;;;;;;;2.80;100.00;91881.38;2114633;28;20020;-78
2023/11/11 05:26:22;;;;;;;3.25;1.52;;;;;;;2.63;100.00;91891.00;2114295;28;20107;-81
2023/11/11 05:27:24;;;;;;;3.60;1.30;;;;;;;2.65;100.00;91896.63;2123210;27;20140;-80
2023/11/11 05:28:25;;;;;;;2.05;1.42;;;;;;;2.81;100.00;91885.50;2123035;27;20023;-81
2023/11/11 05:29:26;;;;;;;1.50;1.40;;;;;;;2.87;100.00;91894.47;2123062;27;20031;-77
2023/11/11 05:30:27;;;;;;;4.55;1.30;;;;;;;2.94;100.00;91895.16;2106144;28;20032;-82
2023/11/11 05:31:31;;;;;;;1.65;1.33;;;;;;;2.87;100.00;91892.59;2097925;28;20036;-81
2023/11/11 05:32:32;;;;;;;1.20;1.10;;;;;;;2.91;100.00;91906.47;2098440;28;20514;-80
2023/11/11 05:33:33;;;;;;;2.65;1.75;;;;;;;2.80;100.00;91897.19;2097872;28;20017;-80
2023/11/11 05:34:36;;;;;;;2.75;1.42;;;;;;;2.78;100.00;91902.88;2114743;28;20023;-77
2023/11/11 05:35:37;;;;;;;4.03;1.45;;;;;;;2.76;100.00;91902.50;2114522;28;20019;-78
2023/11/11 05:36:38;;;;;;;2.45;1.48;;;;;;;2.79;100.00;91899.09;2114623;28;20302;-80
2023/11/11 05:37:42;;;;;;;3.65;1.80;;;;;;;2.67;100.00;91900.34;2100402;28;20032;-81
2023/11/11 05:38:43;;;;;;;3.80;1.70;;;;;;;2.64;100.00;91903.06;2095077;28;20056;-78
2023/11/11 05:39:44;;;;;;;2.92;1.30;;;;;;;2.59;100.00;91900.84;2106088;28;20038;-79
2023/11/11 05:40:46;;;;;;;1.98;1.50;;;;;;;2.63;100.00;91898.91;2097827;28;20117;-81
2023/11/11 05:41:48;;;;;;;3.22;1.60;;;;;;;2.61;100.00;91904.59;2107992;28;20098;-78
2023/11/11 05:42:49;;;;;;;2.35;1.30;;;;;;;2.50;100.00;91915.28;2101880;28;20510;-78
2023/11/11 05:43:51;;;;;;;3.70;1.40;;;;;;;2.67;100.00;91902.25;2082136;28;20494;-78
2023/11/11 05:44:52;;;;;;;2.47;1.45;;;;;;;2.87;100.00;91905.78;2097746;28;20025;-77
2023/11/11 05:45:53;;;;;;;3.97;1.38;;;;;;;2.70;100.00;91909.38;2110506;28;20038;-81
2023/11/11 05:46:54;;;;;;;3.42;1.60;;;;;;;2.65;100.00;91915.09;2106452;28;20023;-77
2023/11/11 05:47:55;;;;;;;1.45;1.30;;;;;;;2.71;100.00;91908.97;2103604;28;20024;-82
2023/11/11 05:48:56;;;;;;;3.08;1.55;;;;;;;2.78;100.00;91916.81;2110704;28;20470;-78
2023/11/11 05:49:57;;;;;;;2.35;1.42;;;;;;;2.72;100.00;91915.00;2106729;28;20028;-77
2023/11/11 05:50:58;;;;;;;3.63;1.42;;;;;;;2.59;100.00;91920.06;2105929;28;20026;-81
2023/11/11 05:52:01;;;;;;;4.10;1.20;;;;;;;2.67;100.00;91921.47;2106602;28;20431;-78
2023/11/11 05:53:02;;;;;;;2.38;1.38;;;;;;;2.75;100.00;91930.78;2106538;28;20032;-77
2023/11/11 05:54:03;;;;;;;2.00;1.38;;;;;;;2.54;100.00;91933.66;2106582;28;20066;-79
2023/11/11 05:55:08;;;;;;;4.45;1.40;;;;;;;2.76;100.00;91931.53;2106652;28;20081;-82
2023/11/11 05:56:09;;;;;;;2.47;1.60;;;;;;;2.69;100.00;91927.09;2106162;28;20019;-79
2023/11/11 05:57:10;;;;;;;1.77;1.48;;;;;;;2.59;100.00;91924.56;2106116;28;20384;-80
2023/11/11 05:58:11;;;;;;;2.33;1.52;;;;;;;2.47;100.00;91931.88;2105756;28;20408;-78
2023/11/11 05:59:12;;;;;;;2.17;1.60;;;;;;;2.40;100.00;91936.47;2106641;28;20043;-81